Weather observations for the past three days for
Claremore, Claremore Regional Airport
Metric (Imperial)
Date Time (cdt) Wind (kph) Vis. (km) Weather Sky Cond. Temperature (ºC) Relative Humidity Wind Chill (°C) Heat Index (°C) Pressure Precipitation (cm)
Air Dwpt 6 hour altimeter (cm) sea level (mb) 1 hr 3 hr 6 hr
Max. Min.
06 06:15 Calm 16.09 A Few Clouds FEW070 25 21 79% 26 76 0.0
06 05:55 Calm 16.09 A Few Clouds FEW070 23 21 89% 76 0.0
06 05:35 Calm 16.09 A Few Clouds FEW075 24 21 83% 24 76 0.0
06 05:15 Calm 16.09 Partly Cloudy SCT075 SCT085 23 21 89% 76 0.0
06 04:55 Calm 16.09 Mostly Cloudy BKN085 24 21 83% 24 76 0.0
06 04:35 Calm 16.09 Overcast OVC085 23 21 89% 76 0.0
06 04:15 Calm 16.09 Mostly Cloudy BKN080 24 21 83% 24 75.97 0.0
06 03:55 Calm 16.09 Overcast OVC085 24 21 83% 24 75.97 0.0
06 03:35 Calm 16.09 Mostly Cloudy BKN085 24 21 83% 24 75.95 0.0
06 03:15 Calm 16.09 Fair CLR 24 21 83% 24 75.95 0.0
06 02:55 Calm 16.09 Fair CLR 25 21 79% 26 75.92 0.0
06 02:35 NE 6 16.09 Fair CLR 25 21 79% 26 75.92 0.0
06 02:15 E 6 16.09 Fair CLR 25 21 79% 26 75.95 0.0
06 01:55 Calm 16.09 Fair CLR 25 22 83% 26 75.95 0.0
06 01:35 Calm 16.09 A Few Clouds FEW085 26 21 74% 27 75.95 0.0
06 01:15 Calm 16.09 A Few Clouds FEW090 26 22 79% 28 75.95 0.0
06 00:55 Calm 16.09 Mostly Cloudy BKN085 26 21 74% 27 75.95 0.0
06 00:35 Calm 16.09 Mostly Cloudy BKN080 27 21 70% 29 75.95 0.0
06 00:15 Calm 16.09 A Few Clouds FEW085 26 22 79% 28 75.95 0.0
05 23:55 Calm 16.09 A Few Clouds FEW085 27 22 74% 29 75.92 0.0
05 23:35 NE 6 16.09 Partly Cloudy SCT085 26 22 79% 28 75.92 0.0
05 23:15 NE 6 16.09 Partly Cloudy SCT085 27 22 74% 29 75.92 0.0
05 22:55 Calm 16.09 Mostly Cloudy BKN090 27 23 79% 30 75.92 0.0
05 22:35 Calm 16.09 Mostly Cloudy BKN090 27 22 74% 29 75.92 0.0
05 22:15 Calm 16.09 Partly Cloudy SCT090 28 22 70% 31 75.92 0.0
05 21:55 NE 6 16.09 Partly Cloudy SCT090 27 22 74% 29 75.9 0.0
05 21:35 Calm 16.09 Mostly Cloudy BKN090 28 22 70% 31 75.9 0.0
05 21:15 Calm 16.09 Partly Cloudy SCT085 28 21 66% 30 75.87 0.0
05 20:55 Calm 16.09 Partly Cloudy SCT085 30 21 59% 33 75.87 0.0
05 20:35 Calm 16.09 Fair CLR 30 21 59% 33 75.84 0.0
05 20:15 Calm 16.09 Fair CLR 31 20 52% 33 75.84 0.0
05 19:55 Calm 16.09 Fair CLR 33 20 46% 35 75.82 0.0
05 19:35 W 6 16.09 Fair CLR 34 21 47% 37 75.82 0.0
05 19:15 Calm 16.09 Fair CLR 36 20 39% 39 75.82 0.0
05 18:55 Calm 16.09 Fair CLR 37 19 35% 39 75.82 0.0
05 18:35 W 6 16.09 Fair CLR 38 19 33% 40 75.79 0.0
05 18:15 Calm 16.09 Fair CLR 38 19 33% 40 75.79 0.0
05 17:55 Vrbl 7 16.09 Fair CLR 38 19 33% 40 75.79 0.0
05 17:35 SW 11 16.09 Fair CLR 39 19 31% 42 75.79 0.0
05 17:15 Vrbl 9 16.09 A Few Clouds FEW080 39 19 31% 42 75.82 0.0
05 16:55 Calm 16.09 A Few Clouds FEW080 39 19 31% 42 75.82 0.0
05 16:35 Calm 16.09 Fair CLR 39 18 29% 41 75.84 0.0
05 16:15 S 17 16.09 Fair CLR 39 19 31% 42 75.87 0.0
05 15:55 Vrbl 11 G 20 16.09 Fair CLR 39 19 31% 42 75.9 0.0
05 15:35 Calm 16.09 Fair CLR 38 18 31% 40 75.9 0.0
05 15:15 S 9 G 24 16.09 Fair CLR 39 18 29% 41 75.95 0.0
05 14:55 Vrbl 6 16.09 Fair CLR 38 19 33% 40 75.97 0.0
05 12:55 Vrbl 9 16.09 Fair CLR 37 20 37% 40 76.07 0.0
05 12:35 Vrbl 11 G 20 16.09 Fair CLR 37 20 37% 40 76.07 0.0
05 12:15 S 9 16.09 Fair CLR 36 21 42% 40 76.1 0.0
05 11:55 Calm 16.09 Fair CLR 36 20 39% 39 76.12 0.0
05 11:35 S 11 16.09 Fair CLR 36 20 39% 39 76.15 0.0
05 11:15 Calm 16.09 Fair CLR 35 21 44% 38 76.15 0.0
05 10:55 Calm 16.09 A Few Clouds FEW085 34 21 47% 37 76.15 0.0
05 10:35 Vrbl 7 16.09 Partly Cloudy SCT085 34 21 47% 37 76.15 0.0
05 10:15 Calm 16.09 Fair CLR 33 21 49% 36 76.12 0.0
05 09:55 Vrbl 7 16.09 Fair CLR 33 21 49% 36 76.12 0.0
05 09:35 SW 7 16.09 Fair CLR 32 22 55% 36 76.12 0.0
05 09:15 Vrbl 7 16.09 Fair CLR 31 22 59% 35 76.12 0.0
05 08:55 S 9 16.09 Fair CLR 29 22 66% 32 76.12 0.0
05 08:35 S 9 16.09 Fair CLR 29 22 66% 32 76.1 0.0
05 08:15 Calm 16.09 Fair CLR 27 22 74% 29 76.1 0.0
05 07:55 Calm 16.09 Fair CLR 26 22 79% 28 76.1 0.0
05 07:35 Calm 16.09 Fair CLR 23 21 89% 76.07 0.0
05 07:15 Calm 16.09 Fair CLR 22 21 94% 76.07 0.0
05 06:55 Calm 16.09 Fair CLR 22 20 88% 76.05 0.0
05 06:35 Calm 16.09 Fair CLR 22 21 94% 76.05 0.0
05 06:15 Calm 16.09 Fair CLR 24 21 83% 24 76.05 0.0
05 05:55 Calm 16.09 Fair CLR 23 21 89% 76.05 0.0
05 05:35 Calm 16.09 Fair CLR 23 21 89% 76.02 0.0
05 05:15 Calm 16.09 Fair CLR 22 21 94% 76.02 0.0
05 04:55 Calm 16.09 Fair CLR 23 21 89% 76.02 0.0
05 04:35 Calm 16.09 Fair CLR 23 21 89% 76.02 0.0
05 04:15 Calm 16.09 Fair CLR 23 21 89% 76.02 0.0
05 03:55 Calm 16.09 Fair CLR 23 21 89% 76.02 0.0
05 03:35 SE 6 16.09 Fair CLR 24 21 83% 24 76 0.0
05 03:15 Calm 16.09 Fair CLR 24 21 83% 24 76 0.0
05 02:55 Calm 16.09 Partly Cloudy SCT075 24 21 83% 24 76 0.0
05 02:35 Calm 14.48 A Few Clouds FEW075 26 20 70% 27 76 0.0
05 02:15 SE 7 16.09 Fair CLR 27 20 66% 29 76 0.0
05 01:55 SE 11 16.09 Fair CLR 27 20 66% 29 76.02 0.0
05 01:35 SE 7 16.09 Fair CLR 27 20 66% 29 76 0.0
05 01:15 SE 6 16.09 Fair CLR 28 20 62% 30 76.02 0.0
05 00:55 SE 7 16.09 Fair CLR 28 20 62% 30 76 0.0
05 00:35 Calm 16.09 A Few Clouds FEW080 28 20 62% 30 76.02 0.0
05 00:15 SE 7 16.09 Partly Cloudy SCT080 28 20 62% 30 76 0.0
04 23:55 SE 13 16.09 Mostly Cloudy BKN080 28 20 62% 30 76 0.0
04 23:35 Calm 16.09 A Few Clouds FEW080 26 21 74% 27 76 0.0
04 23:15 E 6 16.09 Partly Cloudy SCT085 27 21 70% 29 76 0.0
04 22:55 Calm 16.09 Partly Cloudy SCT085 26 22 79% 28 76 0.0
04 22:35 Calm 16.09 Fair CLR 26 21 74% 27 75.97 0.0
04 22:15 W 7 16.09 Fair CLR 27 21 70% 29 75.97 0.0
04 21:55 Calm 16.09 Fair CLR 27 21 70% 29 75.95 0.0
04 21:35 Calm 16.09 Fair CLR 27 21 70% 29 75.95 0.0
04 21:15 Calm 16.09 Fair CLR 28 21 66% 30 75.92 0.0
04 20:55 Calm 16.09 Fair CLR 29 20 58% 31 75.9 0.0
04 20:35 Calm 16.09 Fair CLR 31 20 52% 33 75.87 0.0
04 20:15 SE 6 16.09 Fair CLR 32 20 49% 34 75.87 0.0
04 19:55 SE 6 16.09 Fair CLR 32 20 49% 34 75.87 0.0
04 19:35 SE 7 16.09 Fair CLR 34 20 44% 36 75.84 0.0
04 19:15 SE 6 16.09 Fair CLR 35 20 41% 38 75.84 0.0
04 18:55 SE 7 16.09 Fair CLR 36 19 37% 38 75.84 0.0
04 18:35 S 13 16.09 Fair CLR 37 19 35% 39 75.84 0.0
04 18:15 S 17 16.09 Fair CLR 37 19 35% 39 75.84 0.0
04 17:55 Vrbl 11 G 22 16.09 Fair CLR 37 19 35% 39 75.87 0.0
04 17:35 S 13 16.09 Fair CLR 38 19 33% 40 75.87 0.0
04 17:15 S 15 G 26 16.09 Fair CLR 38 19 33% 40 75.87 0.0
04 16:55 SE 17 16.09 Fair CLR 38 19 33% 40 75.87 0.0
04 16:35 S 15 G 30 16.09 Fair CLR 38 19 33% 40 75.9 0.0
04 16:15 S 17 G 28 16.09 Fair CLR 38 19 33% 40 75.9 0.0
04 15:55 Vrbl 9 G 28 16.09 Fair CLR 38 19 33% 40 75.92 0.0
04 15:35 Vrbl 11 G 26 16.09 Fair CLR 38 19 33% 40 75.92 0.0
04 15:15 S 20 G 33 16.09 Fair CLR 37 20 37% 40 75.95 0.0
04 14:55 S 19 16.09 Fair CLR 37 20 37% 40 75.97 0.0
04 14:35 S 19 G 31 16.09 Fair CLR 37 19 35% 39 76 0.0
04 14:15 S 13 G 28 16.09 Fair CLR 37 20 37% 40 76 0.0
04 13:55 S 17 G 28 16.09 Fair CLR 37 20 37% 40 76.02 0.0
04 13:35 Vrbl 9 G 30 16.09 Fair CLR 36 20 39% 39 76.02 0.0
04 13:15 S 15 G 30 16.09 Fair CLR 36 20 39% 39 76.05 0.0
04 12:55 S 20 16.09 Fair CLR 35 21 44% 38 76.07 0.0
04 12:35 S 17 G 30 16.09 Fair CLR 35 20 41% 38 76.1 0.0
04 12:15 S 17 G 41 16.09 Fair CLR 35 21 44% 38 76.1 0.0
04 11:55 S 20 G 35 16.09 Fair CLR 34 20 44% 36 76.12 0.0
04 11:35 S 19 G 33 16.09 Fair CLR 34 21 47% 37 76.12 0.0
04 11:15 S 17 G 30 16.09 Fair CLR 33 21 49% 36 76.12 0.0
04 10:55 S 19 G 30 16.09 Fair CLR 33 21 49% 36 76.12 0.0
04 10:35 S 19 16.09 Fair CLR 32 21 52% 35 76.15 0.0
04 10:15 S 19 G 30 16.09 Fair CLR 32 22 55% 36 76.15 0.0
04 09:55 S 15 16.09 Fair CLR 31 22 59% 35 76.15 0.0
04 09:35 S 17 G 28 16.09 Fair CLR 30 22 62% 33 76.12 0.0
04 09:15 S 15 16.09 Fair CLR 29 22 66% 32 76.15 0.0
04 08:55 S 11 16.09 Fair CLR 28 22 70% 31 76.15 0.0
04 08:35 S 15 16.09 Fair CLR 27 22 74% 29 76.12 0.0
04 08:15 Vrbl 7 16.09 Fair CLR 26 22 79% 28 76.12 0.0
04 07:55 Calm 16.09 Fair CLR 25 22 83% 26 76.12 0.0
04 07:35 SE 9 16.09 Fair CLR 24 22 89% 24 76.1 0.0
04 07:15 SE 7 16.09 Fair CLR 23 22 94% 76.1 0.0
04 06:55 SE 6 16.09 Fair CLR 22 21 94% 76.1 0.0
04 06:35 Calm 16.09 Fair CLR 22 21 94% 76.1 0.0
04 06:15 Calm 16.09 Fair CLR 23 21 89% 76.07 0.0
04 05:55 SE 7 16.09 Fair CLR 23 22 94% 76.07 0.0
04 05:35 SE 7 16.09 Fair CLR 24 22 89% 24 76.05 0.0
04 05:15 SE 7 16.09 Fair CLR 23 21 89% 76.05 0.0
04 04:55 Calm 16.09 Fair CLR 23 21 89% 76.05 0.0
04 04:35 Calm 16.09 Fair CLR 23 21 89% 76.02 0.0
04 04:15 Calm 16.09 Fair CLR 24 22 89% 24 76.02 0.0
04 03:55 S 9 16.09 Fair CLR 24 21 83% 24 76 0.0
04 03:35 S 7 16.09 Fair CLR 24 21 83% 24 76 0.0
04 03:15 S 9 16.09 Fair CLR 24 21 83% 24 76 0.0
04 02:55 S 9 16.09 Fair CLR 24 21 83% 24 76 0.0
04 02:35 S 9 16.09 Fair CLR 25 21 79% 26 76 0.0
04 02:15 SE 7 16.09 Fair CLR 25 21 79% 26 76 0.0
04 01:55 SE 7 16.09 Fair CLR 25 21 79% 26 76 0.0
04 01:35 SE 7 16.09 Fair CLR 25 21 79% 26 76 0.0
04 01:15 SE 7 16.09 Fair CLR 26 21 74% 27 76 0.0
04 00:55 SE 9 16.09 Fair CLR 26 21 74% 27 76 0.0
04 00:35 S 9 16.09 Fair CLR 26 21 74% 27 76 0.0
04 00:15 S 9 16.09 Fair CLR 26 21 74% 27 75.97 0.0
03 23:55 S 9 16.09 Fair CLR 26 21 74% 27 75.97 0.0
03 23:35 S 11 16.09 Fair CLR 27 21 70% 29 75.97 0.0
03 23:15 S 9 16.09 Fair CLR 27 20 66% 29 75.97 0.0
03 22:55 SE 7 16.09 Fair CLR 27 20 66% 29 75.97 0.0
03 22:35 SE 7 16.09 Fair CLR 28 20 62% 30 75.97 0.0
03 22:15 SE 7 16.09 Fair CLR 28 20 62% 30 75.95 0.0
03 21:55 S 9 16.09 Fair CLR 29 20 58% 31 75.95 0.0
03 21:35 S 9 16.09 Fair CLR 29 20 58% 31 75.92 0.0
03 21:15 S 11 16.09 Fair CLR 29 20 58% 31 75.9 0.0
03 20:55 S 9 16.09 Fair CLR 30 20 55% 32 75.87 0.0
03 20:35 S 7 16.09 Fair CLR 30 20 55% 32 75.87 0.0
03 20:15 S 9 16.09 Fair CLR 30 21 59% 33 75.84 0.0
03 19:55 S 11 16.09 Fair CLR 32 20 49% 34 75.84 0.0
03 19:35 S 11 16.09 Fair CLR 33 20 46% 35 75.84 0.0
03 19:15 S 11 G 20 16.09 Fair CLR 34 20 44% 36 75.82 0.0
03 18:55 S 11 16.09 Fair CLR 35 21 44% 38 75.82 0.0
03 18:35 S 17 16.09 Fair CLR 35 21 44% 38 75.82 0.0
03 18:15 S 15 G 30 16.09 Fair CLR 36 20 39% 39 75.82 0.0
03 17:35 S 19 G 35 16.09 Fair CLR 37 21 39% 41 75.82 0.0
03 17:15 S 19 G 30 16.09 Fair CLR 37 21 39% 41 75.82 0.0
03 16:55 S 20 G 35 16.09 Fair CLR 37 21 39% 41 75.82 0.0
03 16:35 S 19 G 30 16.09 Fair CLR 37 21 39% 41 75.84 0.0
03 16:15 S 26 G 37 16.09 Fair CLR 37 21 39% 41 75.84 0.0
03 14:10 S 13 G 31 16.09 Fair CLR 36 21 42% 40 75.95 0.0
03 13:55 S 17 G 28 16.09 Fair CLR 36 21 42% 40 75.95 0.0
03 13:35 S 20 G 33 16.09 Fair CLR 36 21 42% 40 75.97 0.0
03 13:15 S 22 G 37 16.09 Fair CLR 36 21 42% 40 76 0.0
03 12:55 S 22 G 33 16.09 Fair CLR 36 21 42% 40 76.02 0.0
03 12:35 S 20 G 33 16.09 Fair CLR 35 21 44% 38 76.02 0.0
03 12:15 S 26 16.09 Fair CLR 34 21 47% 37 76.05 0.0
03 11:55 S 20 16.09 Fair CLR 34 22 50% 38 76.05 0.0
03 11:35 S 20 G 31 16.09 Fair CLR 33 21 49% 36 76.07 0.0
03 11:15 S 20 G 30 16.09 Fair CLR 33 22 52% 37 76.1 0.0
03 10:55 S 22 G 35 16.09 Fair CLR 32 22 55% 36 76.1 0.0
03 10:35 S 20 16.09 Fair CLR 31 22 59% 35 76.1 0.0
03 10:15 S 20 G 31 16.09 Fair CLR 31 22 59% 35 76.12 0.0
03 09:55 S 19 G 30 16.09 Fair CLR 30 22 62% 33 76.12 0.0
03 09:35 S 19 G 30 16.09 Fair CLR 30 22 62% 33 76.12 0.0
03 09:15 S 19 G 30 16.09 Fair CLR 29 22 66% 32 76.15 0.0
03 08:55 S 19 16.09 Fair CLR 29 22 66% 32 76.15 0.0
03 08:35 S 13 16.09 Fair CLR 27 22 74% 29 76.15 0.0
03 08:15 S 15 16.09 Fair CLR 27 22 74% 29 76.15 0.0
03 07:55 SE 9 16.09 Fair CLR 26 22 79% 28 76.15 0.0
03 07:35 Calm 16.09 Fair CLR 24 21 83% 24 76.15 0.0
03 07:15 SE 7 16.09 Fair CLR 23 21 89% 76.12 0.0
03 06:55 SE 7 16.09 Fair CLR 24 21 83% 24 76.12 0.0
03 06:35 SE 9 16.09 Fair CLR 24 21 83% 24 76.1 0.0
Date Time (cdt) Wind (kph) Vis. (km) Weather Sky Cond. Air Dwpt Max. Min. Relative Humidity Wind Chill (°C) Heat Index (°C) altimeter (cm) sea level (mb) 1 hr 3 hr 6 hr
6 hour
Temperature (ºC) Pressure Precipitation (cm)